首页
METAR-TAF:

METAR-TAF

机场 :

佩吉, 亞利桑那州, 美国

纬度: 36-55-14N, 经度: 111-26-53W, 海拔: 1314米

当前天气观测

该预报发布于9分钟前的05:53 UTC
风速11节,风向,有时为16节阵风
温度 19°C
湿度 18%
气压 1016 hPa
能見度: 16.1公里
天空无云

METAR: KPGA 250553Z AUTO 35011G16KT 10SM CLR 19/M06 A3001 RMK AO2 SLP113 T01941061 10244 20189 51023 TSNO

时间: 23:02 (06:02 UTC)

预报

该预报发布于42分钟前的05:20 UTC
预报有效从25日的 06点(UTC)到 26日的 06点(UTC)
风速6节,风向多变
能見度: 10公里
天空无云

TAF: KPGA 250520Z 2506/2606 VRB06KT P6SM SKC

超过4000个机场的气象观测和天气预报(METAR&TAF报告)。

可查询的气象台以黄色和红色小点在地图上表示。

将鼠标移到小点上方,可查看气象台名称。

然后点击查看天气观测和预报。

如需切换地图:点击带黑十字的绿色按钮放大地图;点击带横线的绿色按钮缩小地图;或者点击绿色箭头查看邻近地区的地图。


METAR-TAF: